sensor_id;sensor_type;location;lat;lon;timestamp;pressure;altitude;pressure_sealevel;temperature;humidity
75740;BME280;64357;51.344;6.550;2023-05-19T00:00:20;102080.59;;;9.59;74.36
75740;BME280;64357;51.344;6.550;2023-05-19T00:02:47;102070.94;;;9.56;74.31
75740;BME280;64357;51.344;6.550;2023-05-19T00:05:16;102075.69;;;9.60;74.62
75740;BME280;64357;51.344;6.550;2023-05-19T00:07:42;102079.28;;;9.55;74.85
75740;BME280;64357;51.344;6.550;2023-05-19T00:10:12;102075.66;;;9.53;74.95
75740;BME280;64357;51.344;6.550;2023-05-19T00:12:41;102062.47;;;9.43;75.44
75740;BME280;64357;51.344;6.550;2023-05-19T00:15:08;102084.94;;;9.53;74.88
75740;BME280;64357;51.344;6.550;2023-05-19T00:17:35;102081.31;;;9.51;75.18
75740;BME280;64357;51.344;6.550;2023-05-19T00:20:03;102082.72;;;9.49;74.98
75740;BME280;64357;51.344;6.550;2023-05-19T00:22:31;102081.81;;;9.48;75.10
75740;BME280;64357;51.344;6.550;2023-05-19T00:24:59;102072.50;;;9.42;75.29
75740;BME280;64357;51.344;6.550;2023-05-19T00:27:24;102073.81;;;9.45;75.08
75740;BME280;64357;51.344;6.550;2023-05-19T00:29:50;102078.53;;;9.42;75.42
75740;BME280;64357;51.344;6.550;2023-05-19T00:32:18;102071.56;;;9.34;75.45
75740;BME280;64357;51.344;6.550;2023-05-19T00:34:44;102072.66;;;9.36;75.88
75740;BME280;64357;51.344;6.550;2023-05-19T00:37:11;102068.78;;;9.25;76.01
75740;BME280;64357;51.344;6.550;2023-05-19T00:39:37;102082.50;;;9.33;76.05
75740;BME280;64357;51.344;6.550;2023-05-19T00:42:03;102075.91;;;9.28;76.42
75740;BME280;64357;51.344;6.550;2023-05-19T00:44:30;102079.88;;;9.26;76.43
75740;BME280;64357;51.344;6.550;2023-05-19T00:46:56;102070.38;;;9.18;76.81
75740;BME280;64357;51.344;6.550;2023-05-19T00:49:21;102073.13;;;9.19;76.63
75740;BME280;64357;51.344;6.550;2023-05-19T00:51:47;102074.75;;;9.19;77.27
75740;BME280;64357;51.344;6.550;2023-05-19T00:54:14;102057.75;;;9.05;77.68
75740;BME280;64357;51.344;6.550;2023-05-19T00:56:45;102060.47;;;9.06;77.10
75740;BME280;64357;51.344;6.550;2023-05-19T00:59:14;102073.41;;;9.08;77.40
75740;BME280;64357;51.344;6.550;2023-05-19T01:01:39;102066.84;;;9.03;77.83
75740;BME280;64357;51.344;6.550;2023-05-19T01:04:05;102066.47;;;9.00;78.23
75740;BME280;64357;51.344;6.550;2023-05-19T01:06:34;102067.91;;;8.98;78.41
75740;BME280;64357;51.344;6.550;2023-05-19T01:09:03;102069.16;;;8.94;78.19
75740;BME280;64357;51.344;6.550;2023-05-19T01:11:28;102073.34;;;8.94;78.55
75740;BME280;64357;51.344;6.550;2023-05-19T01:13:54;102069.47;;;8.90;78.49
75740;BME280;64357;51.344;6.550;2023-05-19T01:19:24;102068.38;;;8.88;78.77
75740;BME280;64357;51.344;6.550;2023-05-19T01:30:28;102061.75;;;8.76;80.04
75740;BME280;64357;51.344;6.550;2023-05-19T01:33:07;102056.78;;;8.70;80.54
75740;BME280;64357;51.344;6.550;2023-05-19T01:35:34;102052.69;;;8.58;80.32
75740;BME280;64357;51.344;6.550;2023-05-19T01:38:02;102065.44;;;8.58;81.15
75740;BME280;64357;51.344;6.550;2023-05-19T01:40:29;102060.34;;;8.58;80.72
75740;BME280;64357;51.344;6.550;2023-05-19T01:42:57;102065.63;;;8.60;81.32
75740;BME280;64357;51.344;6.550;2023-05-19T01:45:23;102065.25;;;8.57;81.12
75740;BME280;64357;51.344;6.550;2023-05-19T01:47:53;102066.66;;;8.54;81.22
75740;BME280;64357;51.344;6.550;2023-05-19T01:50:20;102067.94;;;8.51;81.61
75740;BME280;64357;51.344;6.550;2023-05-19T01:52:46;102068.06;;;8.45;81.93
75740;BME280;64357;51.344;6.550;2023-05-19T01:55:12;102071.84;;;8.42;82.21
75740;BME280;64357;51.344;6.550;2023-05-19T01:57:50;102075.31;;;8.42;82.22
75740;BME280;64357;51.344;6.550;2023-05-19T02:00:33;102072.56;;;8.41;82.71
75740;BME280;64357;51.344;6.550;2023-05-19T02:03:36;102072.16;;;8.38;82.94
75740;BME280;64357;51.344;6.550;2023-05-19T02:11:36;102065.88;;;8.28;83.74
75740;BME280;64357;51.344;6.550;2023-05-19T02:14:15;102062.00;;;8.25;83.76
75740;BME280;64357;51.344;6.550;2023-05-19T02:16:46;102070.56;;;8.25;83.88
75740;BME280;64357;51.344;6.550;2023-05-19T02:19:33;102061.03;;;8.17;84.67
75740;BME280;64357;51.344;6.550;2023-05-19T02:22:02;102055.66;;;8.09;84.30
75740;BME280;64357;51.344;6.550;2023-05-19T02:24:31;102062.03;;;8.05;85.17
75740;BME280;64357;51.344;6.550;2023-05-19T02:26:56;102067.72;;;8.10;84.98
75740;BME280;64357;51.344;6.550;2023-05-19T02:29:22;102060.19;;;8.04;85.27
75740;BME280;64357;51.344;6.550;2023-05-19T02:31:47;102069.25;;;8.02;85.37
75740;BME280;64357;51.344;6.550;2023-05-19T02:34:17;102067.72;;;7.97;86.06
75740;BME280;64357;51.344;6.550;2023-05-19T02:36:43;102063.59;;;7.97;85.97
75740;BME280;64357;51.344;6.550;2023-05-19T02:39:09;102058.69;;;7.99;85.55
75740;BME280;64357;51.344;6.550;2023-05-19T02:41:37;102051.00;;;7.92;86.00
75740;BME280;64357;51.344;6.550;2023-05-19T02:44:05;102047.50;;;7.91;86.06
75740;BME280;64357;51.344;6.550;2023-05-19T02:46:31;102046.09;;;7.93;86.37
75740;BME280;64357;51.344;6.550;2023-05-19T02:48:57;102046.59;;;7.91;86.28
75740;BME280;64357;51.344;6.550;2023-05-19T02:51:25;102038.56;;;7.88;86.37
75740;BME280;64357;51.344;6.550;2023-05-19T02:53:50;102039.50;;;7.88;86.25
75740;BME280;64357;51.344;6.550;2023-05-19T02:56:16;102036.94;;;7.88;86.13
75740;BME280;64357;51.344;6.550;2023-05-19T02:58:42;102046.03;;;7.86;87.22
75740;BME280;64357;51.344;6.550;2023-05-19T03:01:10;102041.75;;;7.80;87.10
75740;BME280;64357;51.344;6.550;2023-05-19T03:03:37;102045.22;;;7.80;87.21
75740;BME280;64357;51.344;6.550;2023-05-19T03:06:03;102040.94;;;7.73;87.28
75740;BME280;64357;51.344;6.550;2023-05-19T03:08:31;102043.00;;;7.76;87.83
75740;BME280;64357;51.344;6.550;2023-05-19T03:10:57;102055.91;;;7.78;87.21
75740;BME280;64357;51.344;6.550;2023-05-19T03:13:27;102037.72;;;7.74;87.06
75740;BME280;64357;51.344;6.550;2023-05-19T03:15:52;102060.38;;;7.86;87.36
75740;BME280;64357;51.344;6.550;2023-05-19T03:18:21;102051.22;;;7.81;86.60
75740;BME280;64357;51.344;6.550;2023-05-19T03:20:48;102050.31;;;7.80;86.83
75740;BME280;64357;51.344;6.550;2023-05-19T03:23:14;102048.34;;;7.85;86.81
75740;BME280;64357;51.344;6.550;2023-05-19T03:25:47;102052.13;;;7.81;86.90
75740;BME280;64357;51.344;6.550;2023-05-19T03:28:12;102057.72;;;7.79;87.14
75740;BME280;64357;51.344;6.550;2023-05-19T03:30:37;102049.31;;;7.72;87.29
75740;BME280;64357;51.344;6.550;2023-05-19T03:33:08;102055.66;;;7.69;87.63
75740;BME280;64357;51.344;6.550;2023-05-19T03:35:34;102053.78;;;7.68;87.78
75740;BME280;64357;51.344;6.550;2023-05-19T03:38:02;102051.97;;;7.67;88.01
75740;BME280;64357;51.344;6.550;2023-05-19T03:40:30;102048.31;;;7.65;87.79
75740;BME280;64357;51.344;6.550;2023-05-19T03:42:58;102046.38;;;7.69;87.82
75740;BME280;64357;51.344;6.550;2023-05-19T03:45:25;102048.91;;;7.69;88.35
75740;BME280;64357;51.344;6.550;2023-05-19T03:47:50;102049.66;;;7.68;88.54
75740;BME280;64357;51.344;6.550;2023-05-19T03:50:15;102051.25;;;7.68;87.86
75740;BME280;64357;51.344;6.550;2023-05-19T03:52:41;102046.75;;;7.72;87.41
75740;BME280;64357;51.344;6.550;2023-05-19T03:55:11;102049.84;;;7.70;87.55
75740;BME280;64357;51.344;6.550;2023-05-19T03:57:39;102051.13;;;7.73;88.06
75740;BME280;64357;51.344;6.550;2023-05-19T04:00:06;102055.31;;;7.73;87.27
75740;BME280;64357;51.344;6.550;2023-05-19T04:02:37;102054.19;;;7.71;87.41
75740;BME280;64357;51.344;6.550;2023-05-19T04:05:05;102055.84;;;7.70;87.40
75740;BME280;64357;51.344;6.550;2023-05-19T04:07:33;102056.75;;;7.71;87.65
75740;BME280;64357;51.344;6.550;2023-05-19T04:09:58;102060.72;;;7.69;88.02
75740;BME280;64357;51.344;6.550;2023-05-19T04:12:24;102046.50;;;7.64;87.82
75740;BME280;64357;51.344;6.550;2023-05-19T04:14:52;102063.84;;;7.73;88.06
75740;BME280;64357;51.344;6.550;2023-05-19T04:17:17;102063.34;;;7.76;87.51
75740;BME280;64357;51.344;6.550;2023-05-19T04:19:45;102061.72;;;7.77;87.27
75740;BME280;64357;51.344;6.550;2023-05-19T04:22:12;102068.31;;;7.82;87.43
75740;BME280;64357;51.344;6.550;2023-05-19T04:24:37;102068.31;;;7.82;86.92
75740;BME280;64357;51.344;6.550;2023-05-19T04:27:04;102063.72;;;7.79;87.41
75740;BME280;64357;51.344;6.550;2023-05-19T04:29:35;102062.56;;;7.90;87.01
75740;BME280;64357;51.344;6.550;2023-05-19T04:32:01;102067.53;;;7.95;87.14
75740;BME280;64357;51.344;6.550;2023-05-19T04:34:35;102060.81;;;7.96;86.57
75740;BME280;64357;51.344;6.550;2023-05-19T04:37:12;102055.78;;;8.03;85.73
75740;BME280;64357;51.344;6.550;2023-05-19T04:39:44;102071.72;;;8.15;85.80
75740;BME280;64357;51.344;6.550;2023-05-19T04:42:12;102049.47;;;8.07;85.73
75740;BME280;64357;51.344;6.550;2023-05-19T04:44:40;102074.56;;;8.23;85.58
75740;BME280;64357;51.344;6.550;2023-05-19T04:47:08;102070.56;;;8.25;85.33
75740;BME280;64357;51.344;6.550;2023-05-19T04:49:37;102073.69;;;8.30;85.01
75740;BME280;64357;51.344;6.550;2023-05-19T04:52:09;102056.59;;;8.29;84.89
75740;BME280;64357;51.344;6.550;2023-05-19T04:54:36;102069.63;;;8.38;84.81
75740;BME280;64357;51.344;6.550;2023-05-19T04:57:02;102067.84;;;8.44;84.88
75740;BME280;64357;51.344;6.550;2023-05-19T04:59:31;102064.63;;;8.45;84.29
75740;BME280;64357;51.344;6.550;2023-05-19T05:01:56;102061.97;;;8.58;84.47
75740;BME280;64357;51.344;6.550;2023-05-19T05:04:22;102067.44;;;8.61;84.55
75740;BME280;64357;51.344;6.550;2023-05-19T05:06:48;102052.16;;;8.61;84.41
75740;BME280;64357;51.344;6.550;2023-05-19T05:09:15;102060.44;;;8.72;84.02
75740;BME280;64357;51.344;6.550;2023-05-19T05:11:40;102065.03;;;8.75;83.97
75740;BME280;64357;51.344;6.550;2023-05-19T05:14:06;102055.56;;;8.74;83.84
75740;BME280;64357;51.344;6.550;2023-05-19T05:16:34;102062.38;;;8.88;83.22
75740;BME280;64357;51.344;6.550;2023-05-19T05:19:14;102060.06;;;8.96;83.36
75740;BME280;64357;51.344;6.550;2023-05-19T05:21:47;102055.38;;;9.06;82.40
75740;BME280;64357;51.344;6.550;2023-05-19T05:24:13;102060.63;;;9.28;81.97
75740;BME280;64357;51.344;6.550;2023-05-19T05:26:41;102063.34;;;9.29;81.90
75740;BME280;64357;51.344;6.550;2023-05-19T05:29:08;102063.94;;;9.41;81.38
75740;BME280;64357;51.344;6.550;2023-05-19T05:31:34;102046.50;;;9.44;80.46
75740;BME280;64357;51.344;6.550;2023-05-19T05:34:01;102066.03;;;9.58;80.69
75740;BME280;64357;51.344;6.550;2023-05-19T05:36:29;102060.59;;;9.69;79.96
75740;BME280;64357;51.344;6.550;2023-05-19T05:38:55;102058.97;;;9.84;79.08
75740;BME280;64357;51.344;6.550;2023-05-19T05:41:21;102051.38;;;9.91;79.09
75740;BME280;64357;51.344;6.550;2023-05-19T05:43:46;102051.38;;;9.91;78.81
75740;BME280;64357;51.344;6.550;2023-05-19T05:46:12;102056.66;;;10.07;78.50
75740;BME280;64357;51.344;6.550;2023-05-19T05:48:40;102051.06;;;10.24;77.59
75740;BME280;64357;51.344;6.550;2023-05-19T05:51:07;102040.66;;;10.36;77.39
75740;BME280;64357;51.344;6.550;2023-05-19T05:53:37;102043.78;;;10.48;76.91
75740;BME280;64357;51.344;6.550;2023-05-19T05:56:07;102043.06;;;10.56;76.05
75740;BME280;64357;51.344;6.550;2023-05-19T05:58:40;102043.97;;;10.57;75.42
75740;BME280;64357;51.344;6.550;2023-05-19T06:01:09;102044.53;;;10.61;74.11
75740;BME280;64357;51.344;6.550;2023-05-19T06:03:37;102045.22;;;10.82;74.53
75740;BME280;64357;51.344;6.550;2023-05-19T06:06:05;102036.97;;;10.84;74.13
75740;BME280;64357;51.344;6.550;2023-05-19T06:08:31;102043.75;;;10.91;73.25
75740;BME280;64357;51.344;6.550;2023-05-19T06:10:56;102037.84;;;11.06;72.96
75740;BME280;64357;51.344;6.550;2023-05-19T06:13:23;102045.50;;;11.06;72.46
75740;BME280;64357;51.344;6.550;2023-05-19T06:15:50;102037.81;;;11.13;71.75
75740;BME280;64357;51.344;6.550;2023-05-19T06:18:18;102034.88;;;11.17;71.83
75740;BME280;64357;51.344;6.550;2023-05-19T06:20:44;102029.38;;;11.29;71.33
75740;BME280;64357;51.344;6.550;2023-05-19T06:23:09;102036.22;;;11.51;69.67
75740;BME280;64357;51.344;6.550;2023-05-19T06:25:40;102041.56;;;11.75;69.09
75740;BME280;64357;51.344;6.550;2023-05-19T06:28:05;102041.94;;;11.79;68.85
75740;BME280;64357;51.344;6.550;2023-05-19T06:30:35;102044.28;;;11.84;68.52
75740;BME280;64357;51.344;6.550;2023-05-19T06:33:01;102045.50;;;11.95;67.76
75740;BME280;64357;51.344;6.550;2023-05-19T06:35:27;102032.94;;;12.12;66.56
75740;BME280;64357;51.344;6.550;2023-05-19T06:37:52;102039.13;;;12.21;66.69
75740;BME280;64357;51.344;6.550;2023-05-19T06:40:23;102034.78;;;12.36;65.79
75740;BME280;64357;51.344;6.550;2023-05-19T06:42:50;102039.97;;;12.52;65.33
75740;BME280;64357;51.344;6.550;2023-05-19T06:45:19;102032.44;;;12.53;64.67
75740;BME280;64357;51.344;6.550;2023-05-19T06:47:47;102038.00;;;12.65;63.25
75740;BME280;64357;51.344;6.550;2023-05-19T06:50:12;102035.13;;;12.78;63.82
75740;BME280;64357;51.344;6.550;2023-05-19T06:52:37;102031.69;;;12.93;62.40
75740;BME280;64357;51.344;6.550;2023-05-19T06:55:03;102032.75;;;12.95;61.83
75740;BME280;64357;51.344;6.550;2023-05-19T06:57:29;102040.28;;;12.94;62.20
75740;BME280;64357;51.344;6.550;2023-05-19T06:59:54;102040.78;;;12.98;61.10
75740;BME280;64357;51.344;6.550;2023-05-19T07:02:20;102041.72;;;13.15;61.29
75740;BME280;64357;51.344;6.550;2023-05-19T07:04:47;102030.31;;;13.20;61.66
75740;BME280;64357;51.344;6.550;2023-05-19T07:07:15;102036.44;;;13.45;60.31
75740;BME280;64357;51.344;6.550;2023-05-19T07:09:42;102041.97;;;13.56;59.71
75740;BME280;64357;51.344;6.550;2023-05-19T07:12:10;102041.88;;;13.64;60.18
75740;BME280;64357;51.344;6.550;2023-05-19T07:14:35;102040.56;;;13.67;58.23
75740;BME280;64357;51.344;6.550;2023-05-19T07:17:03;102037.56;;;13.96;58.52
75740;BME280;64357;51.344;6.550;2023-05-19T07:19:30;102034.53;;;14.24;57.20
75740;BME280;64357;51.344;6.550;2023-05-19T07:22:06;102037.75;;;14.30;56.44
75740;BME280;64357;51.344;6.550;2023-05-19T07:24:31;102036.94;;;14.80;55.18
75740;BME280;64357;51.344;6.550;2023-05-19T07:26:56;102031.94;;;14.82;54.31
75740;BME280;64357;51.344;6.550;2023-05-19T07:29:32;102023.22;;;15.58;52.70
75740;BME280;64357;51.344;6.550;2023-05-19T07:32:00;102024.44;;;15.96;51.62
75740;BME280;64357;51.344;6.550;2023-05-19T07:34:25;102028.03;;;16.07;51.25
75740;BME280;64357;51.344;6.550;2023-05-19T07:36:51;102023.25;;;16.65;49.68
75740;BME280;64357;51.344;6.550;2023-05-19T07:39:16;102032.13;;;17.13;47.77
75740;BME280;64357;51.344;6.550;2023-05-19T07:41:42;102032.25;;;17.15;45.76
75740;BME280;64357;51.344;6.550;2023-05-19T07:44:10;102023.22;;;17.57;44.48
75740;BME280;64357;51.344;6.550;2023-05-19T07:46:36;102019.00;;;18.06;43.34
75740;BME280;64357;51.344;6.550;2023-05-19T07:49:04;102027.06;;;18.19;43.52
75740;BME280;64357;51.344;6.550;2023-05-19T07:51:30;102016.44;;;17.87;42.59
75740;BME280;64357;51.344;6.550;2023-05-19T07:53:55;102018.81;;;18.33;41.83
75740;BME280;64357;51.344;6.550;2023-05-19T07:56:23;102018.66;;;19.02;41.31
75740;BME280;64357;51.344;6.550;2023-05-19T07:58:49;102005.59;;;18.90;40.37
75740;BME280;64357;51.344;6.550;2023-05-19T08:01:14;102012.56;;;19.22;39.94
75740;BME280;64357;51.344;6.550;2023-05-19T08:03:42;102009.09;;;19.01;38.97
75740;BME280;64357;51.344;6.550;2023-05-19T08:06:07;102009.31;;;18.94;38.69
75740;BME280;64357;51.344;6.550;2023-05-19T08:08:33;102007.94;;;18.77;39.57
75740;BME280;64357;51.344;6.550;2023-05-19T08:11:03;102012.94;;;18.75;39.69
75740;BME280;64357;51.344;6.550;2023-05-19T08:13:31;102014.13;;;18.69;39.66
75740;BME280;64357;51.344;6.550;2023-05-19T08:15:59;102009.84;;;19.30;38.35
75740;BME280;64357;51.344;6.550;2023-05-19T08:18:27;102011.66;;;19.11;37.43
75740;BME280;64357;51.344;6.550;2023-05-19T08:20:55;102011.13;;;19.05;37.56
75740;BME280;64357;51.344;6.550;2023-05-19T08:23:21;102008.56;;;19.05;38.34
75740;BME280;64357;51.344;6.550;2023-05-19T08:25:47;102001.00;;;19.38;37.38
75740;BME280;64357;51.344;6.550;2023-05-19T08:28:12;101997.84;;;20.05;37.04
75740;BME280;64357;51.344;6.550;2023-05-19T08:30:38;101993.44;;;19.52;37.51
75740;BME280;64357;51.344;6.550;2023-05-19T08:33:03;101992.53;;;20.26;36.42
75740;BME280;64357;51.344;6.550;2023-05-19T08:35:31;101996.28;;;20.51;35.08
75740;BME280;64357;51.344;6.550;2023-05-19T08:37:59;101998.09;;;20.30;34.34
75740;BME280;64357;51.344;6.550;2023-05-19T08:40:27;101994.44;;;20.72;34.59
75740;BME280;64357;51.344;6.550;2023-05-19T08:42:55;101989.28;;;20.06;35.14
75740;BME280;64357;51.344;6.550;2023-05-19T08:45:20;101991.72;;;20.27;35.24
75740;BME280;64357;51.344;6.550;2023-05-19T08:47:49;101989.19;;;20.48;33.73
75740;BME280;64357;51.344;6.550;2023-05-19T08:50:28;101987.38;;;20.93;33.55
75740;BME280;64357;51.344;6.550;2023-05-19T08:53:06;101995.22;;;21.16;32.76
75740;BME280;64357;51.344;6.550;2023-05-19T08:58:02;101979.16;;;20.98;31.90
75740;BME280;64357;51.344;6.550;2023-05-19T09:00:28;101980.03;;;21.56;32.26
75740;BME280;64357;51.344;6.550;2023-05-19T09:02:54;101978.47;;;21.46;31.57
75740;BME280;64357;51.344;6.550;2023-05-19T09:05:19;101977.25;;;22.01;31.56
75740;BME280;64357;51.344;6.550;2023-05-19T09:07:45;101972.31;;;21.46;31.13
75740;BME280;64357;51.344;6.550;2023-05-19T09:10:12;101965.28;;;21.80;30.92
75740;BME280;64357;51.344;6.550;2023-05-19T09:12:39;101958.94;;;22.37;30.74
75740;BME280;64357;51.344;6.550;2023-05-19T09:15:07;101960.78;;;22.51;30.34
75740;BME280;64357;51.344;6.550;2023-05-19T09:17:34;101966.84;;;22.38;30.03
75740;BME280;64357;51.344;6.550;2023-05-19T09:20:03;101953.75;;;22.37;30.08
75740;BME280;64357;51.344;6.550;2023-05-19T09:22:45;101947.34;;;22.45;29.71
75740;BME280;64357;51.344;6.550;2023-05-19T09:25:47;101953.81;;;22.63;29.85
75740;BME280;64357;51.344;6.550;2023-05-19T09:28:13;101957.44;;;22.03;30.15
75740;BME280;64357;51.344;6.550;2023-05-19T09:30:38;101951.94;;;22.11;30.53
75740;BME280;64357;51.344;6.550;2023-05-19T09:33:04;101943.28;;;22.23;30.47
75740;BME280;64357;51.344;6.550;2023-05-19T09:35:34;101946.50;;;22.32;30.93
75740;BME280;64357;51.344;6.550;2023-05-19T09:38:00;101947.88;;;22.27;29.59
75740;BME280;64357;51.344;6.550;2023-05-19T09:40:29;101943.84;;;22.07;30.05
75740;BME280;64357;51.344;6.550;2023-05-19T09:42:54;101935.63;;;23.01;29.22
75740;BME280;64357;51.344;6.550;2023-05-19T09:45:20;101937.72;;;23.33;29.09
75740;BME280;64357;51.344;6.550;2023-05-19T09:47:45;101928.22;;;22.69;29.81
75740;BME280;64357;51.344;6.550;2023-05-19T09:50:13;101929.31;;;22.86;29.89
75740;BME280;64357;51.344;6.550;2023-05-19T09:52:42;101936.09;;;23.09;29.42
75740;BME280;64357;51.344;6.550;2023-05-19T09:55:10;101937.44;;;22.77;29.18
75740;BME280;64357;51.344;6.550;2023-05-19T09:57:36;101929.31;;;22.86;29.13
75740;BME280;64357;51.344;6.550;2023-05-19T10:00:04;101932.69;;;22.97;28.76
75740;BME280;64357;51.344;6.550;2023-05-19T10:02:45;101930.66;;;22.54;29.12
75740;BME280;64357;51.344;6.550;2023-05-19T10:05:16;101924.03;;;22.21;29.22
75740;BME280;64357;51.344;6.550;2023-05-19T10:07:49;101919.47;;;22.94;28.69
75740;BME280;64357;51.344;6.550;2023-05-19T10:10:17;101914.81;;;22.76;28.63
75740;BME280;64357;51.344;6.550;2023-05-19T10:12:45;101931.00;;;22.59;28.91
75740;BME280;64357;51.344;6.550;2023-05-19T10:15:12;101924.78;;;22.32;28.79
75740;BME280;64357;51.344;6.550;2023-05-19T10:17:41;101927.13;;;22.41;29.18
75740;BME280;64357;51.344;6.550;2023-05-19T10:20:09;101920.56;;;22.59;29.63
75740;BME280;64357;51.344;6.550;2023-05-19T10:22:37;101913.66;;;23.24;29.12
75740;BME280;64357;51.344;6.550;2023-05-19T10:25:04;101922.81;;;23.04;28.23
75740;BME280;64357;51.344;6.550;2023-05-19T10:27:31;101924.41;;;22.77;28.99
75740;BME280;64357;51.344;6.550;2023-05-19T10:30:03;101914.66;;;23.13;28.80
75740;BME280;64357;51.344;6.550;2023-05-19T10:32:31;101919.69;;;22.72;28.98
75740;BME280;64357;51.344;6.550;2023-05-19T10:41:10;101910.28;;;24.21;26.60
75740;BME280;64357;51.344;6.550;2023-05-19T10:46:35;101915.25;;;24.74;25.82
75740;BME280;64357;51.344;6.550;2023-05-19T10:49:02;101906.91;;;24.09;26.71
75740;BME280;64357;51.344;6.550;2023-05-19T10:51:32;101907.91;;;24.39;26.51
75740;BME280;64357;51.344;6.550;2023-05-19T10:54:03;101896.41;;;24.65;25.40
75740;BME280;64357;51.344;6.550;2023-05-19T10:56:32;101913.25;;;23.58;26.98
75740;BME280;64357;51.344;6.550;2023-05-19T10:59:01;101910.78;;;24.15;26.43
75740;BME280;64357;51.344;6.550;2023-05-19T11:01:33;101912.91;;;23.93;26.32
75740;BME280;64357;51.344;6.550;2023-05-19T11:04:06;101897.50;;;23.98;26.29
75740;BME280;64357;51.344;6.550;2023-05-19T11:06:34;101902.31;;;23.77;26.47
75740;BME280;64357;51.344;6.550;2023-05-19T11:09:20;101896.06;;;23.88;26.86
75740;BME280;64357;51.344;6.550;2023-05-19T11:11:48;101900.22;;;23.71;26.33
75740;BME280;64357;51.344;6.550;2023-05-19T11:14:20;101894.13;;;23.99;26.37
75740;BME280;64357;51.344;6.550;2023-05-19T11:16:48;101893.53;;;24.17;25.99
75740;BME280;64357;51.344;6.550;2023-05-19T11:19:27;101898.03;;;24.20;26.30
75740;BME280;64357;51.344;6.550;2023-05-19T11:21:56;101895.25;;;23.89;26.14
75740;BME280;64357;51.344;6.550;2023-05-19T11:24:46;101893.97;;;22.76;27.52
75740;BME280;64357;51.344;6.550;2023-05-19T11:27:19;101893.41;;;23.07;27.85
75740;BME280;64357;51.344;6.550;2023-05-19T11:29:44;101894.69;;;23.27;27.30
75740;BME280;64357;51.344;6.550;2023-05-19T11:32:11;101888.47;;;23.64;26.75
75740;BME280;64357;51.344;6.550;2023-05-19T11:34:37;101897.88;;;22.83;27.61
75740;BME280;64357;51.344;6.550;2023-05-19T11:37:05;101884.19;;;22.47;28.21
75740;BME280;64357;51.344;6.550;2023-05-19T11:39:31;101887.75;;;22.36;28.55
75740;BME280;64357;51.344;6.550;2023-05-19T11:41:56;101886.31;;;22.66;28.63
75740;BME280;64357;51.344;6.550;2023-05-19T11:44:22;101889.41;;;22.99;27.67
75740;BME280;64357;51.344;6.550;2023-05-19T11:46:47;101882.50;;;22.99;27.10
75740;BME280;64357;51.344;6.550;2023-05-19T11:49:14;101879.78;;;23.24;27.12
75740;BME280;64357;51.344;6.550;2023-05-19T11:51:42;101869.56;;;22.87;27.43
75740;BME280;64357;51.344;6.550;2023-05-19T11:54:12;101869.31;;;23.37;26.87
75740;BME280;64357;51.344;6.550;2023-05-19T11:56:41;101873.84;;;23.40;26.37
75740;BME280;64357;51.344;6.550;2023-05-19T11:59:10;101867.22;;;22.92;26.96
75740;BME280;64357;51.344;6.550;2023-05-19T12:01:35;101861.81;;;23.29;26.26
75740;BME280;64357;51.344;6.550;2023-05-19T12:04:01;101858.97;;;23.65;26.34
75740;BME280;64357;51.344;6.550;2023-05-19T12:06:28;101867.44;;;23.22;27.53
75740;BME280;64357;51.344;6.550;2023-05-19T12:08:54;101857.44;;;22.63;28.67
75740;BME280;64357;51.344;6.550;2023-05-19T12:11:20;101857.63;;;23.04;28.18
75740;BME280;64357;51.344;6.550;2023-05-19T12:13:46;101858.78;;;22.70;28.35
75740;BME280;64357;51.344;6.550;2023-05-19T12:16:11;101849.31;;;22.97;28.19
75740;BME280;64357;51.344;6.550;2023-05-19T12:18:37;101848.84;;;22.64;28.60
75740;BME280;64357;51.344;6.550;2023-05-19T12:21:06;101841.38;;;22.95;28.87
75740;BME280;64357;51.344;6.550;2023-05-19T12:23:34;101842.56;;;23.27;26.72
75740;BME280;64357;51.344;6.550;2023-05-19T12:26:02;101850.28;;;23.25;27.67
75740;BME280;64357;51.344;6.550;2023-05-19T12:28:30;101843.97;;;23.08;28.34
75740;BME280;64357;51.344;6.550;2023-05-19T12:30:57;101845.59;;;22.93;28.25
75740;BME280;64357;51.344;6.550;2023-05-19T12:33:25;101831.13;;;23.25;27.31
75740;BME280;64357;51.344;6.550;2023-05-19T12:35:53;101833.47;;;22.94;28.50
75740;BME280;64357;51.344;6.550;2023-05-19T12:38:19;101830.94;;;23.35;28.14
75740;BME280;64357;51.344;6.550;2023-05-19T12:40:45;101827.81;;;23.27;27.71
75740;BME280;64357;51.344;6.550;2023-05-19T12:43:20;101824.19;;;22.85;28.41
75740;BME280;64357;51.344;6.550;2023-05-19T12:45:46;101820.97;;;22.63;29.53
75740;BME280;64357;51.344;6.550;2023-05-19T12:48:11;101820.81;;;22.22;30.03
75740;BME280;64357;51.344;6.550;2023-05-19T12:50:38;101816.09;;;21.54;31.37
75740;BME280;64357;51.344;6.550;2023-05-19T12:53:07;101817.84;;;21.42;31.07
75740;BME280;64357;51.344;6.550;2023-05-19T12:55:40;101806.16;;;21.49;31.64
75740;BME280;64357;51.344;6.550;2023-05-19T12:58:07;101809.81;;;21.16;28.96
75740;BME280;64357;51.344;6.550;2023-05-19T13:00:40;101813.91;;;21.36;31.06
75740;BME280;64357;51.344;6.550;2023-05-19T13:03:15;101809.69;;;21.26;31.83
75740;BME280;64357;51.344;6.550;2023-05-19T13:05:47;101812.31;;;21.02;32.12
75740;BME280;64357;51.344;6.550;2023-05-19T13:08:15;101803.72;;;21.03;32.47
75740;BME280;64357;51.344;6.550;2023-05-19T13:10:42;101817.59;;;21.27;32.34
75740;BME280;64357;51.344;6.550;2023-05-19T13:13:09;101805.84;;;21.21;30.01
75740;BME280;64357;51.344;6.550;2023-05-19T13:15:37;101811.16;;;21.34;29.63
75740;BME280;64357;51.344;6.550;2023-05-19T13:18:06;101808.34;;;21.19;30.03
75740;BME280;64357;51.344;6.550;2023-05-19T13:20:36;101793.50;;;20.93;32.19
75740;BME280;64357;51.344;6.550;2023-05-19T13:23:02;101799.91;;;20.87;32.67
75740;BME280;64357;51.344;6.550;2023-05-19T13:25:27;101792.25;;;21.00;32.22
75740;BME280;64357;51.344;6.550;2023-05-19T13:27:53;101801.03;;;21.14;32.01